Benchland, Montana
Current Conditions -  °F | °C
As of 12:54 AM on Sunday 26 Oct 2014 (Local Time) from KLWT Reporting Station
Clear Clear  
Wind Chill: 41°   Ceiling: Unl
Heat Index: 45°   Visibility: 10mi
Dew Point: 33°   Wind: 8mph
Humidity: 63%   Direction: 130°SE
Pressure: 29.62"   Gusts: NA
Location:  47.1096°N, 109.884°W
Report Text: KLWT 260654Z AUTO 13007KT 10SM CLR 07/01 A2962 RMK AO2 SLP010 T00720006 402280028
Loading
Personal Weather Stations






























Interactive Weather Map New forecast layout! Learn more

10-Day Weather Forecast

Advertisements
Track Severe Weather on mobile